Airport Name : Liverpool

Other Name : Liverpool

ICAO : EGGP

IATA : LPL

FAA :

Latitude : 53.333611

Longitude : -2.849722

Country : United Kingdom

Local Date and Time : 19 Sep 2020 23:31

 

TAF (Terminal Aerodrome Forecast)

TAF EGGP 191653Z 1918/2018 08009KT 9999 FEW030 PROB30 TEMPO 2000/2006 BKN014

 

METAR (METeorological Aerodrome Report)

EGGP 192220Z 04007KT CAVOK 13/09 Q1023

EGGP 192150Z 03005KT CAVOK 13/10 Q1023

EGGP 192120Z 36006KT CAVOK 13/10 Q1022

EGGP 192050Z 04008KT CAVOK 13/09 Q1022

EGGP 192020Z 04008KT CAVOK 14/10 Q1022

EGGP 191950Z 04005KT CAVOK 13/09 Q1022

EGGP 191920Z 07008KT CAVOK 14/09 Q1022

EGGP 191850Z 08009KT CAVOK 15/09 Q1021

To Charter a Jet Click here.